Decoded Metar for SARC (CORRIENTES in ARGENTINA) (IATA:CNQ) | Meteo·Mobile Aviation Weather
aviador You're here:

SARC Decoded Metar

CORRIENTES in ARGENTINA
Report Time2018-09-23 14:00:00
UTC Time2018-09-23 14:39:58
Flight Rules vfr VFR
Wind360° at 10 kt
W.Decomp.*RWY 02: 9.8 kt HW 1.7 kt LCW
Visibility9999 m
Phenomena:N/A
Clouds:N/A
Expected CloudBase > 5,600 ft AGL from Temp-Dew spread
CeilingNone
Temp35°C (ISA +20)
Dew Point21°C (44% RH)
Heat Index38.5°C
QNH1004 hPa
Density Alt3,146 ft
Elevation203 ft
Report Wrong Elevation
Raw Report
METAR SARC 231400Z 36010KT CAVOK 35/21 Q1004=

Extra information for SARC:More info

Metar Taf Metar & Taf Last 4 Metars F.Rules Stats Wind Profile Meteogram Temp Stats Airport Information Weather charts Add Link Nearby VenuesMetar ALERT Operation Metar Decoded Social comments